Soaring Guidance
Issued by NWS Reno, NV

Home | Current Version | Previous Version | Text Only | Print | Product List | Glossary On
Versions: 1 2 3 4 5 6 7 8 9 10 11 12 13 14 15 16
000
UXUS97 KREV 291409
SRGREV

SOARING FORECAST
NATIONAL WEATHER SERVICE - RENO NV
700 AM PDT SUN MAR 29 2015

THIS SOARING FORECAST IS FOR THE EASTERN SIERRA AND WESTERN NEVADA
WITH SPECIFIC INDICES FOR THE GREATER RENO AREA.

THIS FORECAST IS NOT UPDATED.

FOR CURRENT FLIGHT CONDITIONS...FORECASTS...AND ADVISORIES...ACCESS
YOUR LOCAL BRIEFING OUTLET OR FLIGHT SERVICE STATION.

*******************************************************************
LOCAL INDICES FOR RENO:                   TODAY     YESTERDAY
MAXIMUM TEMPERATURE AT RENO...(DEG F)...     76
TRIGGER TEMPERATURE...........(DEG F)...     63          60
   EXCEEDED YESTERDAY BY 18Z
MAXIMUM ALTITUDE..............(FT MSL)..  14600       14600
SOARING INDEX.................(FPM).....    798         798
FORECASTED K-INDEX.........VALID 18Z....      7           1
FORECASTED K-INDEX.........VALID 00Z....     18          13
FORECASTED LIFTED INDEX....VALID 18Z....      4           5
FORECASTED LIFTED INDEX....VALID 00Z....      2           3

AFTERNOON WINDS ALOFT FORECAST
MSL (FT) WIND/TEMP
9000  9900/+08
10000 9903/+05
12000 2610/+00
14000 2511/-05
16000 2512/-10
18000 2515/-16
24000 3018/-29
30000 3229/-45
34000 3225/-53
39000 3023/-58

SLIDE MOUNTAIN DATA:
 SLD HR 1250 M 37/8/1310/M  /SLIDE MTN UNOFFICIAL OBSERVATION

RENO TAF FORECAST:
KRNO 291152Z 2912/3012 VRB04KT P6SM SCT200
     FM300000 32007KT P6SM FEW200
     FM300500 VRB03KT P6SM SCT200

CARSON CITY TAF FORECAST:
KCXP 291152Z 2912/3012 VRB04KT P6SM SCT200
     FM292000 07009KT P6SM FEW200
     FM300000 34008KT P6SM FEW200
     FM300400 VRB03KT P6SM SCT200

OUTLOOK FOR THE RENO-CARSON CITY-MINDEN AREA:
.MONDAY...PARTLY CLOUDY. HIGHS 75 TO 80. LIGHT WINDS BECOMING
SOUTH AROUND 10 MPH IN THE AFTERNOON.

SUNRISE AND SUNSET
MARCH 29 2015.........SUNRISE   648 AM PDT   SUNSET   720 PM PDT
MARCH 30 2015.........SUNRISE   647 AM PDT   SUNSET   721 PM PDT



THIS PRODUCT IS ROUTINELY PREPARED BY 700 AM AND IS
DISTRIBUTED TO THE RENO FLIGHT SERVICE STATION AS WELL AS THE
NATIONAL WEATHER SERVICE WORLD WIDE WEB HOMEPAGE AT:
       HTTP://WWW.WEATHER.GOV/RENO






USA.gov is the U.S. government's official web portal to all federal, state and local government web resources and services.